Time;durP1;ratioP1;P1;durP2;ratioP2;P2;SDS_P1;SDS_P2;PMS_P1;PMS_P2;Temp;Humidity;BMP_temperature;BMP_pressure;BME280_temperature;BME280_humidity;BME280_pressure;Samples;Min_cycle;Max_cycle;Signal;HPM_P1;HPM_P2
2021/09/07 03:45:33;;;;;;;12.35;5.95;;;;;;;;;;6203132;22;20986;31
2021/09/07 03:47:58;;;;;;;12.05;6.13;;;;;;;;;;4952698;28;20076;-85
2021/09/07 03:50:23;;;;;;;13.40;6.20;;;;;;;;;;4932027;29;20526;-83
2021/09/07 03:52:49;;;;;;;15.97;6.43;;;;;;;;;;4919889;29;20038;-83
2021/09/07 03:55:14;;;;;;;12.70;5.53;;;;;;;;;;4920108;29;20033;-83
2021/09/07 03:57:40;;;;;;;11.93;5.93;;;;;;;;;;4920272;29;20106;-83
2021/09/07 04:00:05;;;;;;;10.43;5.20;;;;;;;;;;4920457;29;20047;-82
2021/09/07 04:02:31;;;;;;;12.40;5.53;;;;;;;;;;4939185;28;20023;-83
2021/09/07 04:04:56;;;;;;;10.67;5.60;;;;;;;;;;4955700;28;20023;-83
2021/09/07 04:07:21;;;;;;;12.13;5.17;;;;;;;;;;4971650;28;20165;-82
2021/09/07 04:09:47;;;;;;;12.02;5.70;;;;;;;;;;4939719;29;20027;-83
2021/09/07 04:12:12;;;;;;;12.57;5.90;;;;;;;;;;4955630;28;20448;-83
2021/09/07 04:14:38;;;;;;;9.73;5.50;;;;;;;;;;4955349;29;20030;-83
2021/09/07 04:17:04;;;;;;;13.60;5.28;;;;;;;;;;4955420;29;20034;-82
2021/09/07 04:19:30;;;;;;;11.82;5.57;;;;;;;;;;4955723;29;20027;-83
2021/09/07 04:21:55;;;;;;;12.27;5.60;;;;;;;;;;4955368;28;20031;-83
2021/09/07 04:24:21;;;;;;;12.97;6.03;;;;;;;;;;4955226;28;20046;-83
2021/09/07 04:26:46;;;;;;;13.13;6.03;;;;;;;;;;4955081;28;20126;-85
2021/09/07 04:29:11;;;;;;;11.32;5.75;;;;;;;;;;4954919;28;20027;-82
2021/09/07 04:31:37;;;;;;;12.23;6.18;;;;;;;;;;4955099;29;20399;-83
2021/09/07 04:34:03;;;;;;;9.03;5.50;;;;;;;;;;4970992;28;20026;-83
2021/09/07 04:36:28;;;;;;;11.43;5.70;;;;;;;;;;4971024;28;20373;-83
2021/09/07 04:38:53;;;;;;;13.73;5.83;;;;;;;;;;4955189;28;20023;-83
2021/09/07 04:41:19;;;;;;;9.93;5.53;;;;;;;;;;4954838;28;20031;-85
2021/09/07 04:43:44;;;;;;;15.40;6.17;;;;;;;;;;4970619;28;20039;-83
2021/09/07 04:46:09;;;;;;;12.43;5.43;;;;;;;;;;4954762;28;20479;-83
2021/09/07 04:48:35;;;;;;;14.57;6.30;;;;;;;;;;4954875;28;20154;-83
2021/09/07 04:51:00;;;;;;;12.07;5.80;;;;;;;;;;4936397;29;20089;-83
2021/09/07 04:53:28;;;;;;;13.03;6.70;;;;;;;;;;4943262;28;20057;-87
2021/09/07 04:55:54;;;;;;;15.00;6.95;;;;;;;;;;4934000;29;20047;-85
2021/09/07 04:58:19;;;;;;;12.60;6.43;;;;;;;;;;4913488;29;20577;-83
2021/09/07 05:00:45;;;;;;;17.40;7.30;;;;;;;;;;4932164;29;20106;-83
2021/09/07 05:03:10;;;;;;;13.40;6.37;;;;;;;;;;4932549;29;20030;-83
2021/09/07 05:05:35;;;;;;;14.23;7.20;;;;;;;;;;4916872;29;20480;-87
2021/09/07 05:08:01;;;;;;;13.20;6.53;;;;;;;;;;4917525;29;20031;-85
2021/09/07 05:10:27;;;;;;;14.07;6.73;;;;;;;;;;4918256;29;20049;-83
2021/09/07 05:12:52;;;;;;;13.52;6.90;;;;;;;;;;4954084;28;20459;-83
2021/09/07 05:15:18;;;;;;;11.03;5.93;;;;;;;;;;4938525;29;20027;-83
2021/09/07 05:17:44;;;;;;;11.03;6.23;;;;;;;;;;4922676;29;20428;-83
2021/09/07 05:20:10;;;;;;;13.35;6.65;;;;;;;;;;4922741;29;20023;-83
2021/09/07 05:22:37;;;;;;;11.23;5.93;;;;;;;;;;4921920;29;20054;-84
2021/09/07 05:25:06;;;;;;;12.65;6.50;;;;;;;;;;4922648;29;20076;-84
2021/09/07 05:31:11;;;;;;;12.88;6.50;;;;;;;;;;4955449;29;20054;-87
2021/09/07 05:33:37;;;;;;;14.15;6.82;;;;;;;;;;4937760;29;20019;-88
2021/09/07 05:36:02;;;;;;;13.60;6.70;;;;;;;;;;4938369;29;20436;-88
2021/09/07 05:38:28;;;;;;;13.07;6.77;;;;;;;;;;4922261;29;20122;-88
2021/09/07 05:40:53;;;;;;;11.27;6.20;;;;;;;;;;4937923;28;20517;-89
2021/09/07 05:43:19;;;;;;;13.10;6.40;;;;;;;;;;4922177;29;20065;-88
2021/09/07 05:45:44;;;;;;;12.93;6.83;;;;;;;;;;4922007;29;20023;-88
2021/09/07 05:48:09;;;;;;;12.40;6.50;;;;;;;;;;4922178;29;20019;-90
2021/09/07 05:50:35;;;;;;;13.03;5.90;;;;;;;;;;4921928;29;20027;-88
2021/09/07 05:53:01;;;;;;;11.00;5.97;;;;;;;;;;4937302;29;20023;-88
2021/09/07 05:55:26;;;;;;;11.60;6.50;;;;;;;;;;4937333;29;20031;-91
2021/09/07 05:57:54;;;;;;;11.30;6.30;;;;;;;;;;4920497;29;20046;-88
2021/09/07 06:00:20;;;;;;;13.50;6.82;;;;;;;;;;4903538;29;20467;-87
2021/09/07 06:02:45;;;;;;;13.77;6.00;;;;;;;;;;4903097;29;20034;-88
2021/09/07 06:05:11;;;;;;;12.07;6.13;;;;;;;;;;4915484;29;20090;-87
2021/09/07 06:07:37;;;;;;;13.23;6.47;;;;;;;;;;4921458;29;20130;-88
2021/09/07 06:10:03;;;;;;;12.35;6.13;;;;;;;;;;4921992;29;20027;-87
2021/09/07 06:12:29;;;;;;;11.50;6.30;;;;;;;;;;4937891;29;20085;-87
2021/09/07 06:14:57;;;;;;;12.10;6.70;;;;;;;;;;4937483;29;20019;-88
2021/09/07 06:17:22;;;;;;;11.18;5.75;;;;;;;;;;4917822;29;20042;-88
2021/09/07 06:19:47;;;;;;;11.00;6.13;;;;;;;;;;4919585;29;20031;-87
2021/09/07 06:22:13;;;;;;;12.07;6.00;;;;;;;;;;4931414;29;20027;-86
2021/09/07 06:24:38;;;;;;;11.67;6.40;;;;;;;;;;4921635;29;20428;-92
2021/09/07 06:27:04;;;;;;;12.17;6.47;;;;;;;;;;4915118;29;20019;-87
2021/09/07 06:29:29;;;;;;;9.83;5.37;;;;;;;;;;4917665;29;20032;-86
2021/09/07 06:31:55;;;;;;;11.60;6.50;;;;;;;;;;4917306;29;20035;-87
2021/09/07 06:34:27;;;;;;;9.97;5.43;;;;;;;;;;4917275;29;20023;-87
2021/09/07 06:36:53;;;;;;;11.23;6.35;;;;;;;;;;4918093;29;20024;-87
2021/09/07 06:39:18;;;;;;;11.50;5.65;;;;;;;;;;4917625;29;20070;-88
2021/09/07 06:41:43;;;;;;;12.93;6.00;;;;;;;;;;4917589;29;20118;-87
2021/09/07 06:44:09;;;;;;;10.53;5.50;;;;;;;;;;4917423;29;20065;-87
2021/09/07 06:46:34;;;;;;;11.27;5.70;;;;;;;;;;4932907;29;20039;-87
2021/09/07 06:48:59;;;;;;;9.63;5.37;;;;;;;;;;4917441;29;20489;-87
2021/09/07 06:51:25;;;;;;;10.83;5.30;;;;;;;;;;4917738;29;20032;-88
2021/09/07 06:53:50;;;;;;;9.43;5.27;;;;;;;;;;4918046;29;20032;-88
2021/09/07 06:56:16;;;;;;;10.07;4.80;;;;;;;;;;4932999;29;20027;-87
2021/09/07 06:58:41;;;;;;;11.03;5.47;;;;;;;;;;4917640;29;20123;-87
2021/09/07 07:01:06;;;;;;;7.77;5.13;;;;;;;;;;4917623;29;20027;-86
2021/09/07 07:03:33;;;;;;;8.67;5.03;;;;;;;;;;4917693;29;20028;-87
2021/09/07 07:05:58;;;;;;;10.40;5.50;;;;;;;;;;4917449;29;20287;-87
2021/09/07 07:08:23;;;;;;;;;;;;;;;;;;4918447;29;20220;-86
2021/09/07 07:10:49;;;;;;;7.20;4.90;;;;;;;;;;4936258;29;19946;-87
2021/09/07 07:13:14;;;;;;;7.85;4.72;;;;;;;;;;4939537;29;20023;-87
2021/09/07 07:15:39;;;;;;;7.47;4.75;;;;;;;;;;4971930;28;20106;-86
2021/09/07 07:18:05;;;;;;;8.05;4.90;;;;;;;;;;4955707;28;20465;-87
2021/09/07 07:20:32;;;;;;;8.73;5.35;;;;;;;;;;4956030;28;20083;-87
2021/09/07 07:23:00;;;;;;;7.85;5.25;;;;;;;;;;4940087;29;20031;-92
2021/09/07 07:25:25;;;;;;;8.25;5.18;;;;;;;;;;4956177;29;20049;-89
2021/09/07 07:27:50;;;;;;;11.90;5.65;;;;;;;;;;4956365;28;20115;-89
2021/09/07 07:30:16;;;;;;;8.98;5.55;;;;;;;;;;4956542;29;20396;-89
2021/09/07 07:32:41;;;;;;;9.27;5.90;;;;;;;;;;4956673;28;20037;-90
2021/09/07 07:35:07;;;;;;;9.43;6.03;;;;;;;;;;4939723;29;20530;-87
2021/09/07 07:37:32;;;;;;;10.50;5.82;;;;;;;;;;4971884;28;20038;-90
2021/09/07 07:39:58;;;;;;;9.38;5.93;;;;;;;;;;4940280;29;20043;-86
2021/09/07 07:42:23;;;;;;;9.80;5.55;;;;;;;;;;4956282;29;20113;-86
2021/09/07 07:44:49;;;;;;;9.68;6.35;;;;;;;;;;4956143;29;20023;-86
2021/09/07 07:47:14;;;;;;;10.38;6.65;;;;;;;;;;4939975;29;20031;-87
2021/09/07 07:49:40;;;;;;;9.25;5.90;;;;;;;;;;4955761;28;20085;-86
2021/09/07 07:52:05;;;;;;;12.27;6.57;;;;;;;;;;4956117;28;20027;-87
2021/09/07 07:54:31;;;;;;;9.30;6.50;;;;;;;;;;4940129;29;20440;-84
2021/09/07 07:56:56;;;;;;;10.70;6.93;;;;;;;;;;4955843;29;20049;-85
2021/09/07 07:59:21;;;;;;;11.15;7.00;;;;;;;;;;4939522;29;20034;-85
2021/09/07 08:01:47;;;;;;;10.13;6.85;;;;;;;;;;4955675;28;20066;-85
2021/09/07 08:04:12;;;;;;;11.57;7.30;;;;;;;;;;4955639;28;20031;-86
2021/09/07 08:06:39;;;;;;;9.93;6.70;;;;;;;;;;4939696;29;20047;-86
2021/09/07 08:09:05;;;;;;;10.32;7.10;;;;;;;;;;4953944;29;20024;-86
2021/09/07 08:11:30;;;;;;;9.85;6.45;;;;;;;;;;4955639;28;20024;-86
2021/09/07 08:13:56;;;;;;;10.20;6.47;;;;;;;;;;4939155;29;20090;-87
2021/09/07 08:16:22;;;;;;;10.02;6.75;;;;;;;;;;4939617;29;20031;-87
2021/09/07 08:18:47;;;;;;;10.52;6.15;;;;;;;;;;4952457;29;20028;-87
2021/09/07 09:41:16;;;;;;;13.98;4.90;;;;;;;;;;4972125;28;20369;-84
2021/09/07 09:44:06;;;;;;;7.45;4.90;;;;;;;;;;4954578;28;20527;-85
2021/09/07 09:47:18;;;;;;;8.40;4.68;;;;;;;;;;4941435;28;20051;-85
2021/09/07 10:05:07;;;;;;;7.10;4.93;;;;;;;;;;4948721;29;20089;-87
2021/09/07 10:08:39;;;;;;;7.78;4.43;;;;;;;;;;4913319;29;20052;-84
2021/09/07 10:19:11;;;;;;;13.32;5.57;;;;;;;;;;4894769;29;20116;-86
2021/09/07 10:26:01;;;;;;;9.15;4.65;;;;;;;;;;4876045;29;20124;-86
2021/09/07 10:29:25;;;;;;;9.00;5.03;;;;;;;;;;4856860;29;20429;-86
2021/09/07 10:33:01;;;;;;;7.93;4.57;;;;;;;;;;4875598;29;20549;-85
2021/09/07 10:36:25;;;;;;;7.82;5.10;;;;;;;;;;4832162;29;20053;-86
2021/09/07 10:40:07;;;;;;;9.63;4.95;;;;;;;;;;4820199;29;20038;-86
2021/09/07 10:43:31;;;;;;;8.93;5.18;;;;;;;;;;4816899;29;20129;-86
2021/09/07 10:47:05;;;;;;;8.07;4.72;;;;;;;;;;4840713;29;20055;-86
2021/09/07 11:24:17;;;;;;;8.82;5.13;;;;;;;;;;4841977;29;20557;-86
2021/09/07 11:41:30;;;;;;;11.30;5.40;;;;;;;;;;4897500;29;20097;-86
2021/09/07 11:51:31;;;;;;;9.30;5.72;;;;;;;;;;4786919;30;20073;-86
2021/09/07 12:25:32;;;;;;;9.18;5.22;;;;;;;;;;4915962;29;20046;-86
2021/09/07 12:42:42;;;;;;;8.70;5.15;;;;;;;;;;4768200;30;20087;-86
2021/09/07 12:59:13;;;;;;;12.20;5.60;;;;;;;;;;4877463;29;20121;-86
2021/09/07 13:50:31;;;;;;;9.38;5.22;;;;;;;;;;4749496;30;20048;-86
2021/09/07 14:04:04;;;;;;;10.18;5.35;;;;;;;;;;4717263;30;20087;-87
2021/09/07 14:11:21;;;;;;;10.57;5.30;;;;;;;;;;4771505;29;20317;-86
2021/09/07 14:15:02;;;;;;;9.32;5.28;;;;;;;;;;4802111;29;20042;-85
2021/09/07 14:18:15;;;;;;;11.20;5.45;;;;;;;;;;4820580;29;20539;-86
2021/09/07 14:21:01;;;;;;;8.23;4.90;;;;;;;;;;4838061;29;20201;-86
2021/09/07 14:24:09;;;;;;;9.43;4.95;;;;;;;;;;4820977;29;20128;-86
2021/09/07 14:27:35;;;;;;;8.25;5.20;;;;;;;;;;4831281;29;20072;-86
2021/09/07 14:33:26;;;;;;;9.65;4.97;;;;;;;;;;4786660;29;20085;-85
2021/09/07 14:36:28;;;;;;;7.97;5.00;;;;;;;;;;4800612;29;20153;-85
2021/09/07 14:39:54;;;;;;;8.40;4.93;;;;;;;;;;4951197;29;20031;-86
2021/09/07 14:46:02;;;;;;;7.63;4.88;;;;;;;;;;4912989;29;20188;-86
2021/09/07 15:03:08;;;;;;;9.30;4.90;;;;;;;;;;4896460;29;20038;-86
2021/09/07 15:13:50;;;;;;;10.00;4.90;;;;;;;;;;4820065;29;20128;-86
2021/09/07 15:16:57;;;;;;;8.77;4.88;;;;;;;;;;4783144;29;20039;-85
2021/09/07 15:20:24;;;;;;;8.52;4.82;;;;;;;;;;4766058;30;20032;-85
2021/09/07 16:01:07;;;;;;;7.35;4.78;;;;;;;;;;4837701;29;20117;-86
2021/09/07 16:04:31;;;;;;;8.38;4.68;;;;;;;;;;4804549;29;20045;-86
2021/09/07 16:17:51;;;;;;;8.25;4.72;;;;;;;;;;4751103;30;20051;-85
2021/09/07 16:43:55;;;;;;;9.20;4.78;;;;;;;;;;4785768;29;20095;-86
2021/09/07 16:46:23;;;;;;;8.13;5.20;;;;;;;;;;4771048;30;20035;-86
2021/09/07 17:13:14;;;;;;;11.00;5.57;;;;;;;;;;4851674;29;20533;-86
2021/09/07 17:16:11;;;;;;;9.77;5.17;;;;;;;;;;4889518;29;20032;-85
2021/09/07 17:43:16;;;;;;;10.02;5.60;;;;;;;;;;4937984;29;20045;-84
2021/09/07 17:45:41;;;;;;;12.23;5.70;;;;;;;;;;4915888;28;20023;-83
2021/09/07 18:15:40;;;;;;;14.38;5.78;;;;;;;;;;4889448;29;20071;-85
2021/09/07 18:19:05;;;;;;;12.05;6.15;;;;;;;;;;4871230;29;20044;-85
2021/09/07 18:29:47;;;;;;;15.65;6.60;;;;;;;;;;4905589;28;20084;-84
2021/09/07 18:33:20;;;;;;;13.23;6.30;;;;;;;;;;4928589;29;20035;-84
2021/09/07 18:36:44;;;;;;;12.10;6.45;;;;;;;;;;4916023;29;20039;-85
2021/09/07 18:40:10;;;;;;;10.82;6.47;;;;;;;;;;4923482;29;20023;-84
2021/09/07 18:53:39;;;;;;;12.10;6.50;;;;;;;;;;4925267;29;20684;-86
2021/09/07 20:05:42;;;;;;;11.85;6.55;;;;;;;;;;4952229;28;20171;-83
2021/09/07 20:08:07;;;;;;;12.55;6.25;;;;;;;;;;4937372;29;20043;-83
2021/09/07 20:10:33;;;;;;;11.27;6.03;;;;;;;;;;4951439;29;20094;-83
2021/09/07 20:12:58;;;;;;;11.67;6.20;;;;;;;;;;4906732;29;20024;-82
2021/09/07 20:15:24;;;;;;;14.93;6.27;;;;;;;;;;4929084;29;20338;-82
2021/09/07 20:17:49;;;;;;;11.90;6.53;;;;;;;;;;4969688;28;20062;-82
2021/09/07 20:20:15;;;;;;;12.30;6.57;;;;;;;;;;4954435;28;20133;-82
2021/09/07 20:22:40;;;;;;;13.57;6.87;;;;;;;;;;4953807;28;20027;-82
2021/09/07 20:25:06;;;;;;;14.00;6.90;;;;;;;;;;4954204;28;20031;-82
2021/09/07 20:27:31;;;;;;;12.00;6.60;;;;;;;;;;4955199;28;20058;-83
2021/09/07 20:29:57;;;;;;;10.47;6.47;;;;;;;;;;4938841;28;20444;-82
2021/09/07 20:32:22;;;;;;;13.60;6.60;;;;;;;;;;4970885;28;20114;-82
2021/09/07 20:34:47;;;;;;;13.47;7.07;;;;;;;;;;4955575;28;20656;-82
2021/09/07 20:37:13;;;;;;;11.67;6.70;;;;;;;;;;4971204;28;20038;-82
2021/09/07 20:39:38;;;;;;;14.83;6.70;;;;;;;;;;4955006;28;20484;-82
2021/09/07 20:42:03;;;;;;;13.13;7.13;;;;;;;;;;4971217;28;20023;-82
2021/09/07 20:44:29;;;;;;;13.50;7.27;;;;;;;;;;4952221;28;20032;-82
2021/09/07 20:46:56;;;;;;;11.83;6.47;;;;;;;;;;4920312;29;20031;-83
2021/09/07 20:49:21;;;;;;;12.77;7.28;;;;;;;;;;4952101;28;20035;-82
2021/09/07 20:51:46;;;;;;;13.20;7.17;;;;;;;;;;4922863;29;20035;-82
2021/09/07 20:54:12;;;;;;;11.27;6.60;;;;;;;;;;4922517;29;20592;-82
2021/09/07 20:56:37;;;;;;;14.47;7.60;;;;;;;;;;4922207;29;20110;-83
2021/09/07 20:59:02;;;;;;;16.83;6.90;;;;;;;;;;4938288;29;20035;-82
